createdAt,value
2019-04-25T00:01:55.201Z,86.04
2019-04-25T00:08:01.438Z,85.32
2019-04-25T00:14:07.005Z,86.35
2019-04-25T00:20:13.463Z,85.10
2019-04-25T00:26:25.576Z,84.81
2019-04-25T00:32:31.587Z,85.16
2019-04-25T00:38:36.298Z,84.71
2019-04-25T00:44:42.832Z,85.15
2019-04-25T00:50:47.985Z,85.65
2019-04-25T00:56:53.788Z,86.65
2019-04-25T01:03:01.846Z,86.73
2019-04-25T01:09:10.023Z,86.11
2019-04-25T01:15:15.591Z,85.98
2019-04-25T01:21:20.207Z,86.22
2019-04-25T01:27:24.919Z,86.61
2019-04-25T01:33:29.763Z,87.69
2019-04-25T01:39:36.097Z,87.28
2019-04-25T01:45:41.299Z,87.84
2019-04-25T01:51:45.826Z,89.13
2019-04-25T01:57:50.934Z,87.93
2019-04-25T02:03:55.763Z,88.29
2019-04-25T02:10:00.343Z,89.12
2019-04-25T02:16:06.666Z,90.39
2019-04-25T02:22:11.281Z,90.11
2019-04-25T02:28:15.984Z,90.12
2019-04-25T02:34:20.517Z,89.65
2019-04-25T02:40:25.278Z,89.95
2019-04-25T02:46:37.464Z,89.94
2019-04-25T02:52:44.402Z,89.00
2019-04-25T02:58:49.969Z,89.48
2019-04-25T03:04:54.822Z,89.57
2019-04-25T03:10:59.842Z,89.29
2019-04-25T03:17:06.920Z,89.94
2019-04-25T03:23:14.515Z,90.31
2019-04-25T03:29:19.409Z,90.53
2019-04-25T03:35:23.971Z,90.94
2019-04-25T03:41:28.590Z,90.79
2019-04-25T03:47:33.308Z,90.14
2019-04-25T03:53:38.116Z,90.75
2019-04-25T03:59:43.789Z,91.13
2019-04-25T04:05:48.536Z,91.04
2019-04-25T04:11:53.452Z,91.10
2019-04-25T04:18:02.286Z,91.20
2019-04-25T04:24:08.546Z,92.84
2019-04-25T04:30:14.469Z,92.79
2019-04-25T04:36:19.509Z,92.65
2019-04-25T04:42:24.069Z,92.18
2019-04-25T04:48:28.667Z,91.53
2019-04-25T04:54:34.448Z,91.51
2019-04-25T05:00:39.187Z,90.63
2019-04-25T05:06:51.072Z,90.02
2019-04-25T05:12:55.610Z,90.09
2019-04-25T05:19:00.175Z,89.59
2019-04-25T05:25:06.628Z,88.93
2019-04-25T05:31:15.408Z,88.63
2019-04-25T05:37:19.669Z,88.54
2019-04-25T05:43:25.922Z,88.26
2019-04-25T05:49:30.555Z,86.44
2019-04-25T05:55:35.141Z,86.20
2019-04-25T06:01:39.796Z,87.42
2019-04-25T06:07:44.307Z,88.45
2019-04-25T06:13:50.516Z,88.69
2019-04-25T06:19:56.800Z,87.71
2019-04-25T06:26:17.046Z,88.18
2019-04-25T06:32:08.611Z,84.09
2019-04-25T06:38:13.556Z,81.90
2019-04-25T06:44:31.415Z,77.48
2019-04-25T06:50:36.001Z,75.02
2019-04-25T06:56:40.546Z,72.74
2019-04-25T07:02:45.246Z,66.54
2019-04-25T07:08:49.795Z,65.64
2019-04-25T07:14:54.365Z,66.48
2019-04-25T07:20:58.919Z,65.60
2019-04-25T07:27:15.426Z,67.06
2019-04-25T07:33:23.322Z,65.67
2019-04-25T07:39:27.978Z,64.54
2019-04-25T07:45:34.676Z,63.77
2019-04-25T07:51:38.869Z,61.65
2019-04-25T07:57:44.255Z,62.31
2019-04-25T08:03:49.177Z,59.40
2019-04-25T08:09:54.181Z,56.56
2019-04-25T08:16:00.630Z,55.35
2019-04-25T08:28:05.351Z,53.35
2019-04-25T08:34:09.961Z,52.30
2019-04-25T08:40:15.329Z,49.51
2019-04-25T08:46:20.014Z,50.62
2019-04-25T08:52:24.652Z,50.74
2019-04-25T08:58:36.859Z,48.59
2019-04-25T09:04:44.604Z,49.98
2019-04-25T09:10:49.219Z,47.47
2019-04-25T09:16:53.762Z,46.13
2019-04-25T09:22:58.314Z,44.59
2019-04-25T09:29:16.306Z,41.99
2019-04-25T09:35:09.807Z,41.81
2019-04-25T09:41:15.322Z,42.10
2019-04-25T09:47:20.224Z,40.53
2019-04-25T09:53:25.974Z,38.90
2019-04-25T09:59:30.645Z,38.08
2019-04-25T10:05:36.835Z,38.08
2019-04-25T10:11:42.152Z,37.00
2019-04-25T10:17:47.985Z,38.76
2019-04-25T10:23:53.479Z,36.68
2019-04-25T10:29:58.206Z,32.97
2019-04-25T10:36:04.205Z,30.50
2019-04-25T10:42:09.031Z,27.48
2019-04-25T10:48:13.764Z,28.27
2019-04-25T10:54:18.370Z,26.06
2019-04-25T11:00:29.141Z,25.45
2019-04-25T11:06:33.947Z,23.80
2019-04-25T11:12:38.551Z,24.47
2019-04-25T11:18:45.000Z,22.35
2019-04-25T11:24:49.555Z,22.88
2019-04-25T11:30:55.526Z,21.37
2019-04-25T11:37:00.611Z,22.00
2019-04-25T11:43:05.588Z,20.52
2019-04-25T11:49:10.874Z,20.44
2019-04-25T11:55:16.665Z,18.74
2019-04-25T12:01:21.318Z,20.37
2019-04-25T12:07:26.036Z,18.67
2019-04-25T12:13:30.676Z,17.60
2019-04-25T12:19:37.938Z,19.49
2019-04-25T12:25:41.503Z,17.86
2019-04-25T12:31:46.818Z,19.47
2019-04-25T12:37:53.715Z,17.78
2019-04-25T12:44:15.954Z,19.78
2019-04-25T12:50:21.242Z,19.43
2019-04-25T12:56:25.798Z,19.06
2019-04-25T13:02:30.369Z,18.32
2019-04-25T13:08:35.000Z,18.96
2019-04-25T13:14:39.547Z,18.20
2019-04-25T13:20:44.106Z,18.05
2019-04-25T13:27:03.603Z,21.33
2019-04-25T13:33:26.131Z,22.66
2019-04-25T13:39:31.868Z,22.42
2019-04-25T13:45:36.411Z,23.67
2019-04-25T13:51:40.967Z,23.37
2019-04-25T13:57:45.500Z,27.31
2019-04-25T14:03:50.132Z,26.51
2019-04-25T14:09:54.750Z,24.90
2019-04-25T14:16:03.871Z,24.16
2019-04-25T14:22:08.662Z,20.49
2019-04-25T14:28:14.124Z,20.05
2019-04-25T14:34:18.988Z,18.65
2019-04-25T14:40:25.726Z,19.04
2019-04-25T14:46:30.031Z,21.47
2019-04-25T14:52:35.587Z,23.15
2019-04-25T14:58:42.018Z,19.31
2019-04-25T15:04:46.662Z,19.50
2019-04-25T15:10:51.287Z,18.80
2019-04-25T15:16:55.837Z,19.32
2019-04-25T15:23:00.503Z,17.23
2019-04-25T15:29:06.149Z,16.99
2019-04-25T15:35:12.455Z,17.95
2019-04-25T15:41:19.653Z,18.08
2019-04-25T15:47:26.453Z,18.68
2019-04-25T15:53:31.101Z,17.61
2019-04-25T15:59:35.785Z,17.29
2019-04-25T16:05:40.486Z,18.44
2019-04-25T16:11:45.042Z,19.80
2019-04-25T16:17:49.962Z,20.12
2019-04-25T16:23:54.531Z,20.70
2019-04-25T16:29:59.085Z,21.20
2019-04-25T16:36:03.904Z,20.18
2019-04-25T16:42:08.795Z,22.50
2019-04-25T16:48:14.186Z,22.57
2019-04-25T16:54:18.811Z,24.84
2019-04-25T17:00:25.255Z,24.53
2019-04-25T17:06:30.514Z,25.47
2019-04-25T17:12:36.514Z,28.59
2019-04-25T17:18:42.825Z,30.16
2019-04-25T17:24:47.381Z,30.32
2019-04-25T17:30:59.338Z,33.31
2019-04-25T17:37:08.759Z,34.47
2019-04-25T17:43:13.320Z,33.36
2019-04-25T17:49:17.957Z,35.42
2019-04-25T17:55:22.511Z,33.56
2019-04-25T18:01:27.196Z,32.01
2019-04-25T18:07:31.747Z,34.94
2019-04-25T18:13:38.824Z,38.31
2019-04-25T18:19:50.097Z,38.82
2019-04-25T18:25:58.984Z,39.69
2019-04-25T18:32:03.703Z,40.15
2019-04-25T18:38:26.315Z,41.79
2019-04-25T18:44:30.949Z,40.17
2019-04-25T18:50:36.218Z,43.64
2019-04-25T18:56:49.709Z,43.85
2019-04-25T19:03:22.211Z,43.63
2019-04-25T19:09:18.794Z,42.34
2019-04-25T19:15:23.352Z,40.61
2019-04-25T19:21:27.914Z,38.51
2019-04-25T19:27:32.602Z,41.77
2019-04-25T19:33:39.265Z,43.07
2019-04-25T19:39:52.024Z,43.66
2019-04-25T19:45:56.645Z,44.52
2019-04-25T19:52:01.196Z,46.95
2019-04-25T19:58:06.354Z,47.25
2019-04-25T20:04:12.628Z,49.63
2019-04-25T20:10:34.886Z,48.07
2019-04-25T20:16:45.654Z,49.90
2019-04-25T20:22:50.650Z,48.92
2019-04-25T20:28:55.433Z,50.15
2019-04-25T20:35:00.101Z,48.94
2019-04-25T20:41:04.707Z,49.69
2019-04-25T20:47:09.360Z,49.19
2019-04-25T20:53:13.927Z,50.32
2019-04-25T20:59:18.477Z,51.19
2019-04-25T21:05:23.132Z,50.55
2019-04-25T21:11:27.701Z,49.97
2019-04-25T21:17:32.219Z,51.30
2019-04-25T21:23:36.842Z,48.68
2019-04-25T21:29:41.392Z,48.39
2019-04-25T21:35:46.221Z,47.86
2019-04-25T21:41:51.433Z,49.58
2019-04-25T21:47:57.079Z,48.87
2019-04-25T21:54:03.717Z,48.43
2019-04-25T22:00:15.353Z,47.95
2019-04-25T22:06:20.326Z,48.75
2019-04-25T22:12:24.941Z,48.50
2019-04-25T22:18:29.712Z,48.17
2019-04-25T22:24:34.270Z,48.07
2019-04-25T22:30:40.397Z,49.14
2019-04-25T22:36:45.031Z,49.52
2019-04-25T22:42:49.652Z,48.17
2019-04-25T22:48:54.271Z,49.11
2019-04-25T22:54:59.873Z,47.10
2019-04-25T23:01:07.291Z,49.15
2019-04-25T23:07:12.353Z,49.67
2019-04-25T23:13:16.923Z,51.85
2019-04-25T23:19:21.528Z,54.43
2019-04-25T23:25:28.116Z,55.87
2019-04-25T23:31:40.333Z,56.07
2019-04-25T23:37:45.429Z,57.33
2019-04-25T23:43:49.993Z,58.41
2019-04-25T23:49:54.589Z,58.59
2019-04-25T23:55:59.555Z,59.04
